sensor_id;sensor_type;location;lat;lon;timestamp;pressure;altitude;pressure_sealevel;temperature;humidity
23679;BME280;12016;51.668;6.874;2023-03-19T00:02:18;100918.94;;;13.02;67.47
23679;BME280;12016;51.668;6.874;2023-03-19T00:08:20;100921.69;;;12.93;67.99
23679;BME280;12016;51.668;6.874;2023-03-19T00:14:23;100915.81;;;12.91;68.84
23679;BME280;12016;51.668;6.874;2023-03-19T00:20:24;100916.56;;;13.00;68.59
23679;BME280;12016;51.668;6.874;2023-03-19T00:26:36;100910.56;;;12.86;70.06
23679;BME280;12016;51.668;6.874;2023-03-19T00:32:38;100900.88;;;12.85;70.82
23679;BME280;12016;51.668;6.874;2023-03-19T00:38:41;100911.50;;;12.90;71.13
23679;BME280;12016;51.668;6.874;2023-03-19T00:44:44;100906.00;;;12.78;71.40
23679;BME280;12016;51.668;6.874;2023-03-19T00:50:49;100905.16;;;12.86;71.50
23679;BME280;12016;51.668;6.874;2023-03-19T00:56:51;100905.31;;;12.89;71.58
23679;BME280;12016;51.668;6.874;2023-03-19T01:02:54;100906.72;;;12.96;71.27
23679;BME280;12016;51.668;6.874;2023-03-19T01:08:55;100903.34;;;12.99;71.01
23679;BME280;12016;51.668;6.874;2023-03-19T01:14:58;100891.31;;;12.96;70.35
23679;BME280;12016;51.668;6.874;2023-03-19T01:21:00;100899.09;;;12.89;70.38
23679;BME280;12016;51.668;6.874;2023-03-19T01:27:04;100906.94;;;12.73;70.74
23679;BME280;12016;51.668;6.874;2023-03-19T01:33:07;100896.81;;;12.70;71.24
23679;BME280;12016;51.668;6.874;2023-03-19T01:39:29;100897.31;;;12.55;71.27
23679;BME280;12016;51.668;6.874;2023-03-19T01:45:33;100893.03;;;12.54;70.68
23679;BME280;12016;51.668;6.874;2023-03-19T01:52:04;100882.06;;;12.59;71.00
23679;BME280;12016;51.668;6.874;2023-03-19T01:58:21;100899.81;;;12.60;70.83
23679;BME280;12016;51.668;6.874;2023-03-19T02:05:06;100891.91;;;12.46;71.35
23679;BME280;12016;51.668;6.874;2023-03-19T02:11:08;100873.00;;;12.55;70.80
23679;BME280;12016;51.668;6.874;2023-03-19T02:17:10;100874.25;;;12.58;70.41
23679;BME280;12016;51.668;6.874;2023-03-19T02:23:29;100875.53;;;12.51;70.56
23679;BME280;12016;51.668;6.874;2023-03-19T02:29:38;100879.19;;;12.56;70.46
23679;BME280;12016;51.668;6.874;2023-03-19T02:35:40;100885.88;;;12.49;70.92
23679;BME280;12016;51.668;6.874;2023-03-19T02:41:43;100874.13;;;12.45;70.96
23679;BME280;12016;51.668;6.874;2023-03-19T02:47:46;100880.00;;;12.47;71.34
23679;BME280;12016;51.668;6.874;2023-03-19T02:53:48;100877.63;;;12.37;71.84
23679;BME280;12016;51.668;6.874;2023-03-19T02:59:51;100878.25;;;12.43;71.41
23679;BME280;12016;51.668;6.874;2023-03-19T03:05:53;100882.88;;;12.42;71.86
23679;BME280;12016;51.668;6.874;2023-03-19T03:11:55;100878.25;;;12.51;71.61
23679;BME280;12016;51.668;6.874;2023-03-19T03:17:57;100868.38;;;12.56;71.43
23679;BME280;12016;51.668;6.874;2023-03-19T03:23:59;100873.28;;;12.62;71.40
23679;BME280;12016;51.668;6.874;2023-03-19T03:30:01;100886.00;;;12.62;71.73
23679;BME280;12016;51.668;6.874;2023-03-19T03:36:03;100894.41;;;12.69;71.29
23679;BME280;12016;51.668;6.874;2023-03-19T03:42:05;100892.06;;;12.59;71.27
23679;BME280;12016;51.668;6.874;2023-03-19T03:48:08;100897.50;;;12.41;71.92
23679;BME280;12016;51.668;6.874;2023-03-19T03:54:10;100901.00;;;12.42;71.57
23679;BME280;12016;51.668;6.874;2023-03-19T04:00:12;100908.31;;;12.24;71.98
23679;BME280;12016;51.668;6.874;2023-03-19T04:06:15;100913.88;;;12.19;71.91
23679;BME280;12016;51.668;6.874;2023-03-19T04:12:20;100910.53;;;12.13;71.68
23679;BME280;12016;51.668;6.874;2023-03-19T04:18:22;100912.13;;;12.14;71.57
23679;BME280;12016;51.668;6.874;2023-03-19T04:24:24;100908.97;;;12.04;71.67
23679;BME280;12016;51.668;6.874;2023-03-19T04:30:26;100918.97;;;12.12;71.79
23679;BME280;12016;51.668;6.874;2023-03-19T04:36:29;100918.47;;;12.10;71.32
23679;BME280;12016;51.668;6.874;2023-03-19T04:42:31;100921.97;;;12.10;71.60
23679;BME280;12016;51.668;6.874;2023-03-19T04:48:41;100932.94;;;12.23;71.46
23679;BME280;12016;51.668;6.874;2023-03-19T04:54:43;100933.41;;;12.16;71.40
23679;BME280;12016;51.668;6.874;2023-03-19T05:00:45;100959.47;;;12.12;71.82
23679;BME280;12016;51.668;6.874;2023-03-19T05:06:52;100940.22;;;12.22;72.02
23679;BME280;12016;51.668;6.874;2023-03-19T05:12:54;100944.03;;;12.21;71.79
23679;BME280;12016;51.668;6.874;2023-03-19T05:18:57;100949.63;;;12.33;71.06
23679;BME280;12016;51.668;6.874;2023-03-19T05:24:59;100945.63;;;12.22;71.77
23679;BME280;12016;51.668;6.874;2023-03-19T05:31:03;100946.75;;;12.21;72.07
23679;BME280;12016;51.668;6.874;2023-03-19T05:37:12;100942.94;;;12.22;71.94
23679;BME280;12016;51.668;6.874;2023-03-19T05:43:18;100958.03;;;12.23;72.63
23679;BME280;12016;51.668;6.874;2023-03-19T05:49:20;100959.00;;;12.27;72.46
23679;BME280;12016;51.668;6.874;2023-03-19T05:55:22;100963.28;;;12.11;73.83
23679;BME280;12016;51.668;6.874;2023-03-19T06:01:32;100970.91;;;12.18;74.10
23679;BME280;12016;51.668;6.874;2023-03-19T06:07:34;100975.84;;;12.07;74.89
23679;BME280;12016;51.668;6.874;2023-03-19T06:13:40;100976.63;;;12.16;75.22
23679;BME280;12016;51.668;6.874;2023-03-19T06:19:48;100986.31;;;12.17;75.00
23679;BME280;12016;51.668;6.874;2023-03-19T06:25:50;101000.75;;;12.12;75.68
23679;BME280;12016;51.668;6.874;2023-03-19T06:31:55;101003.41;;;11.95;76.47
23679;BME280;12016;51.668;6.874;2023-03-19T06:38:10;101001.38;;;12.01;76.56
23679;BME280;12016;51.668;6.874;2023-03-19T06:44:12;101008.53;;;12.05;76.60
23679;BME280;12016;51.668;6.874;2023-03-19T06:50:14;101015.72;;;12.27;76.07
23679;BME280;12016;51.668;6.874;2023-03-19T06:56:19;101017.91;;;12.34;76.14
23679;BME280;12016;51.668;6.874;2023-03-19T07:02:21;101031.59;;;12.37;76.04
23679;BME280;12016;51.668;6.874;2023-03-19T07:08:23;101015.22;;;12.60;75.25
23679;BME280;12016;51.668;6.874;2023-03-19T07:14:30;101024.75;;;12.83;74.44
23679;BME280;12016;51.668;6.874;2023-03-19T07:20:31;101031.91;;;12.79;74.78
23679;BME280;12016;51.668;6.874;2023-03-19T07:26:34;101049.56;;;12.94;74.72
23679;BME280;12016;51.668;6.874;2023-03-19T07:32:35;101056.25;;;12.79;75.13
23679;BME280;12016;51.668;6.874;2023-03-19T07:38:37;101053.53;;;12.62;75.36
23679;BME280;12016;51.668;6.874;2023-03-19T07:44:39;101061.31;;;12.37;76.29
23679;BME280;12016;51.668;6.874;2023-03-19T07:50:41;101063.38;;;12.32;76.71
23679;BME280;12016;51.668;6.874;2023-03-19T07:56:43;101068.13;;;12.35;77.03
23679;BME280;12016;51.668;6.874;2023-03-19T08:02:44;101068.63;;;12.28;77.13
23679;BME280;12016;51.668;6.874;2023-03-19T08:08:46;101081.19;;;12.50;76.63
23679;BME280;12016;51.668;6.874;2023-03-19T08:14:48;101078.50;;;12.76;76.23
23679;BME280;12016;51.668;6.874;2023-03-19T08:20:49;101070.69;;;12.92;75.72
23679;BME280;12016;51.668;6.874;2023-03-19T08:26:51;101081.50;;;13.00;75.66
23679;BME280;12016;51.668;6.874;2023-03-19T08:32:53;101088.50;;;13.01;75.59
23679;BME280;12016;51.668;6.874;2023-03-19T08:38:56;101102.81;;;13.10;75.57
23679;BME280;12016;51.668;6.874;2023-03-19T08:44:59;101096.63;;;13.18;74.72
23679;BME280;12016;51.668;6.874;2023-03-19T08:51:01;101100.41;;;13.35;74.36
23679;BME280;12016;51.668;6.874;2023-03-19T08:57:03;101111.88;;;13.32;74.01
23679;BME280;12016;51.668;6.874;2023-03-19T09:03:05;101103.91;;;13.27;74.30
23679;BME280;12016;51.668;6.874;2023-03-19T09:09:07;101114.56;;;13.40;74.29
23679;BME280;12016;51.668;6.874;2023-03-19T09:15:09;101115.06;;;13.34;74.18
23679;BME280;12016;51.668;6.874;2023-03-19T09:21:11;101124.59;;;13.48;74.16
23679;BME280;12016;51.668;6.874;2023-03-19T09:27:13;101132.31;;;13.67;73.16
23679;BME280;12016;51.668;6.874;2023-03-19T09:33:15;101127.72;;;14.35;71.73
23679;BME280;12016;51.668;6.874;2023-03-19T09:39:17;101127.91;;;14.80;69.76
23679;BME280;12016;51.668;6.874;2023-03-19T09:45:19;101127.50;;;14.70;68.98
23679;BME280;12016;51.668;6.874;2023-03-19T09:51:34;101129.81;;;14.59;69.67
23679;BME280;12016;51.668;6.874;2023-03-19T09:57:39;101145.41;;;14.32;69.75
23679;BME280;12016;51.668;6.874;2023-03-19T10:04:03;101137.28;;;14.83;68.56
23679;BME280;12016;51.668;6.874;2023-03-19T10:10:13;101131.34;;;14.69;68.83
23679;BME280;12016;51.668;6.874;2023-03-19T10:16:23;101140.19;;;14.27;69.98
23679;BME280;12016;51.668;6.874;2023-03-19T10:22:40;101151.91;;;14.11;71.43
23679;BME280;12016;51.668;6.874;2023-03-19T10:28:45;101162.59;;;14.07;72.08
23679;BME280;12016;51.668;6.874;2023-03-19T10:34:52;101164.28;;;13.82;73.19
23679;BME280;12016;51.668;6.874;2023-03-19T10:47:15;101175.97;;;13.57;75.39
23679;BME280;12016;51.668;6.874;2023-03-19T10:53:23;101172.44;;;13.65;76.23
23679;BME280;12016;51.668;6.874;2023-03-19T10:59:32;101182.06;;;14.01;76.64
23679;BME280;12016;51.668;6.874;2023-03-19T11:05:34;101187.31;;;15.48;73.42
23679;BME280;12016;51.668;6.874;2023-03-19T11:11:43;101192.22;;;15.99;68.95
23679;BME280;12016;51.668;6.874;2023-03-19T11:17:47;101191.66;;;15.07;71.89
23679;BME280;12016;51.668;6.874;2023-03-19T11:23:53;101191.56;;;15.04;72.10
23679;BME280;12016;51.668;6.874;2023-03-19T11:29:59;101186.25;;;15.94;68.40
23679;BME280;12016;51.668;6.874;2023-03-19T11:48:25;101178.78;;;16.27;67.94
23679;BME280;12016;51.668;6.874;2023-03-19T11:54:48;101184.28;;;19.66;65.38
23679;BME280;12016;51.668;6.874;2023-03-19T12:00:53;101166.69;;;19.44;58.61
23679;BME280;12016;51.668;6.874;2023-03-19T12:07:18;101165.88;;;18.00;62.95
23679;BME280;12016;51.668;6.874;2023-03-19T12:13:36;101167.47;;;17.58;64.48
23679;BME280;12016;51.668;6.874;2023-03-19T12:19:47;101173.97;;;20.28;57.73
23679;BME280;12016;51.668;6.874;2023-03-19T12:38:09;101060.38;;;18.55;57.34
23679;BME280;12016;51.668;6.874;2023-03-19T12:44:38;101168.16;;;18.14;56.83
23679;BME280;12016;51.668;6.874;2023-03-19T12:50:45;100990.56;;;16.58;57.11
23679;BME280;12016;51.668;6.874;2023-03-19T12:57:39;101167.00;;;17.99;55.83
23679;BME280;12016;51.668;6.874;2023-03-19T13:09:51;101179.84;;;20.04;48.38
23679;BME280;12016;51.668;6.874;2023-03-19T13:16:02;101107.19;;;18.96;51.57
23679;BME280;12016;51.668;6.874;2023-03-19T13:22:11;101165.88;;;22.43;46.88
23679;BME280;12016;51.668;6.874;2023-03-19T13:28:29;101160.16;;;21.67;43.98
23679;BME280;12016;51.668;6.874;2023-03-19T13:34:33;101160.16;;;24.27;36.81
23679;BME280;12016;51.668;6.874;2023-03-19T13:46:39;101158.13;;;20.93;45.58
23679;BME280;12016;51.668;6.874;2023-03-19T13:58:50;101157.38;;;19.68;45.42
23679;BME280;12016;51.668;6.874;2023-03-19T14:04:57;101156.47;;;18.83;48.35
23679;BME280;12016;51.668;6.874;2023-03-19T14:11:01;101157.25;;;18.49;48.28
23679;BME280;12016;51.668;6.874;2023-03-19T14:17:11;101162.16;;;18.08;49.33
23679;BME280;12016;51.668;6.874;2023-03-19T14:23:17;101164.41;;;18.38;48.79
23679;BME280;12016;51.668;6.874;2023-03-19T14:29:24;101065.38;;;20.92;44.78
23679;BME280;12016;51.668;6.874;2023-03-19T14:35:27;101162.75;;;20.33;42.94
23679;BME280;12016;51.668;6.874;2023-03-19T14:41:31;101166.91;;;22.83;40.37
23679;BME280;12016;51.668;6.874;2023-03-19T14:53:45;101165.16;;;19.89;45.88
23679;BME280;12016;51.668;6.874;2023-03-19T14:59:51;101165.25;;;19.12;46.60
23679;BME280;12016;51.668;6.874;2023-03-19T15:06:01;101170.91;;;18.84;46.27
23679;BME280;12016;51.668;6.874;2023-03-19T15:18:18;101171.16;;;19.33;47.95
23679;BME280;12016;51.668;6.874;2023-03-19T15:24:21;101164.66;;;23.13;43.72
23679;BME280;12016;51.668;6.874;2023-03-19T15:30:25;101167.81;;;21.91;42.83
23679;BME280;12016;51.668;6.874;2023-03-19T15:36:32;100961.69;;;18.91;45.17
23679;BME280;12016;51.668;6.874;2023-03-19T15:42:34;101066.34;;;18.99;46.55
23679;BME280;12016;51.668;6.874;2023-03-19T15:48:46;101190.00;;;19.57;46.32
23679;BME280;12016;51.668;6.874;2023-03-19T15:54:53;101055.28;;;18.18;47.05
23679;BME280;12016;51.668;6.874;2023-03-19T16:00:58;101208.66;;;18.63;48.25
23679;BME280;12016;51.668;6.874;2023-03-19T16:07:01;101020.97;;;17.20;48.88
23679;BME280;12016;51.668;6.874;2023-03-19T16:13:21;101210.53;;;18.43;48.96
23679;BME280;12016;51.668;6.874;2023-03-19T16:19:36;101212.44;;;17.95;49.91
23679;BME280;12016;51.668;6.874;2023-03-19T16:25:39;101224.13;;;17.96;50.99
23679;BME280;12016;51.668;6.874;2023-03-19T16:31:45;101218.59;;;17.76;51.72
23679;BME280;12016;51.668;6.874;2023-03-19T16:37:52;101049.94;;;16.68;51.53
23679;BME280;12016;51.668;6.874;2023-03-19T16:44:00;101232.53;;;18.03;51.97
23679;BME280;12016;51.668;6.874;2023-03-19T16:50:13;101247.72;;;18.04;52.06
23679;BME280;12016;51.668;6.874;2023-03-19T16:56:16;101270.38;;;17.76;52.56
23679;BME280;12016;51.668;6.874;2023-03-19T17:02:19;101296.09;;;17.51;53.15
23679;BME280;12016;51.668;6.874;2023-03-19T17:08:21;101016.00;;;15.61;53.74
23679;BME280;12016;51.668;6.874;2023-03-19T17:14:24;101259.22;;;16.89;54.63
23679;BME280;12016;51.668;6.874;2023-03-19T17:20:30;101296.75;;;16.96;54.49
23679;BME280;12016;51.668;6.874;2023-03-19T17:26:33;101302.66;;;16.86;55.10
23679;BME280;12016;51.668;6.874;2023-03-19T17:32:35;101315.22;;;16.66;55.70
23679;BME280;12016;51.668;6.874;2023-03-19T17:38:37;101287.38;;;16.24;56.59
23679;BME280;12016;51.668;6.874;2023-03-19T17:44:38;101120.84;;;14.88;56.71
23679;BME280;12016;51.668;6.874;2023-03-19T17:50:40;101329.72;;;16.13;57.15
23679;BME280;12016;51.668;6.874;2023-03-19T17:56:43;101177.13;;;14.91;57.77
23679;BME280;12016;51.668;6.874;2023-03-19T18:02:46;101173.41;;;14.54;58.48
23679;BME280;12016;51.668;6.874;2023-03-19T18:08:49;101351.00;;;15.48;58.94
23679;BME280;12016;51.668;6.874;2023-03-19T18:14:51;101170.75;;;13.99;59.69
23679;BME280;12016;51.668;6.874;2023-03-19T18:20:53;101373.28;;;15.12;60.18
23679;BME280;12016;51.668;6.874;2023-03-19T18:26:55;101218.72;;;13.98;60.48
23679;BME280;12016;51.668;6.874;2023-03-19T18:32:59;101335.25;;;14.53;60.94
23679;BME280;12016;51.668;6.874;2023-03-19T18:39:02;101390.03;;;14.76;61.11
23679;BME280;12016;51.668;6.874;2023-03-19T18:45:04;101386.25;;;14.60;61.28
23679;BME280;12016;51.668;6.874;2023-03-19T18:51:10;101250.31;;;13.51;61.50
23679;BME280;12016;51.668;6.874;2023-03-19T18:57:13;101366.97;;;14.44;61.38
23679;BME280;12016;51.668;6.874;2023-03-19T19:03:19;101435.13;;;14.81;61.56
23679;BME280;12016;51.668;6.874;2023-03-19T19:09:25;101325.94;;;13.99;61.69
23679;BME280;12016;51.668;6.874;2023-03-19T19:15:30;101445.06;;;14.68;61.91
23679;BME280;12016;51.668;6.874;2023-03-19T19:21:33;101420.72;;;14.51;61.75
23679;BME280;12016;51.668;6.874;2023-03-19T19:27:35;101353.63;;;14.05;61.71
